createdAt,value
2024-03-09T00:00:32.731Z,0
2024-03-09T00:01:47.088Z,0
2024-03-09T00:03:01.000Z,0
2024-03-09T00:04:15.000Z,0
2024-03-09T00:05:30.133Z,0
2024-03-09T00:06:43.556Z,0
2024-03-09T00:07:57.908Z,0
2024-03-09T00:10:26.601Z,0
2024-03-09T00:11:40.972Z,0
2024-03-09T00:12:55.316Z,0
2024-03-09T00:14:09.674Z,0
2024-03-09T00:16:38.379Z,0
2024-03-09T00:17:52.740Z,0
2024-03-09T00:19:07.102Z,0
2024-03-09T00:21:35.809Z,0
2024-03-09T00:22:49.204Z,0
2024-03-09T00:24:03.552Z,0
2024-03-09T00:25:17.912Z,0
2024-03-09T00:26:32.274Z,0
2024-03-09T00:27:46.629Z,0
2024-03-09T00:29:00.945Z,0
2024-03-09T00:30:15.347Z,0
2024-03-09T00:31:29.000Z,0
2024-03-09T00:32:44.000Z,0
2024-03-09T00:33:58.402Z,0
2024-03-09T00:35:12.754Z,0
2024-03-09T00:36:27.122Z,0
2024-03-09T00:37:41.473Z,0
2024-03-09T00:38:55.820Z,0
2024-03-09T00:40:09.000Z,0
2024-03-09T00:41:23.579Z,0
2024-03-09T00:43:51.354Z,0
2024-03-09T00:45:04.762Z,0
2024-03-09T00:46:19.109Z,0
2024-03-09T00:47:32.503Z,0
2024-03-09T00:48:45.000Z,0
2024-03-09T00:50:00.303Z,0
2024-03-09T00:51:14.000Z,0
2024-03-09T00:52:29.008Z,0
2024-03-09T00:53:43.353Z,0
2024-03-09T00:54:57.716Z,0
2024-03-09T00:56:12.064Z,0
2024-03-09T00:57:26.434Z,0
2024-03-09T00:58:40.000Z,0
2024-03-09T00:59:54.198Z,0
2024-03-09T01:01:07.620Z,0
2024-03-09T01:02:21.958Z,0
2024-03-09T01:03:36.320Z,0
2024-03-09T01:04:50.000Z,0
2024-03-09T01:06:05.034Z,0
2024-03-09T01:07:19.000Z,0
2024-03-09T01:08:33.747Z,0
2024-03-09T01:09:48.097Z,0
2024-03-09T01:11:02.452Z,0
2024-03-09T01:12:16.800Z,0
2024-03-09T01:13:31.160Z,0
2024-03-09T01:14:45.507Z,0
2024-03-09T01:17:14.218Z,0
2024-03-09T01:18:28.573Z,0
2024-03-09T01:19:41.984Z,0
2024-03-09T01:20:56.344Z,0
2024-03-09T01:23:25.046Z,0
2024-03-09T01:24:38.478Z,0
2024-03-09T01:25:52.823Z,0
2024-03-09T01:28:20.000Z,0
2024-03-09T01:29:34.941Z,0
2024-03-09T01:30:49.295Z,0
2024-03-09T01:32:03.638Z,0
2024-03-09T01:34:32.355Z,0
2024-03-09T01:35:46.000Z,0
2024-03-09T01:37:01.066Z,0
2024-03-09T01:38:15.000Z,0
2024-03-09T01:39:29.780Z,0
2024-03-09T01:40:43.206Z,0
2024-03-09T01:41:56.604Z,0
2024-03-09T01:45:39.662Z,0
2024-03-09T01:46:53.981Z,0
2024-03-09T01:48:08.373Z,0
2024-03-09T01:49:22.000Z,0
2024-03-09T01:50:37.092Z,0
2024-03-09T01:51:51.440Z,0
2024-03-09T01:53:05.799Z,0
2024-03-09T01:54:20.000Z,0
2024-03-09T01:55:34.516Z,0
2024-03-09T01:56:48.858Z,0
2024-03-09T01:58:02.261Z,0
2024-03-09T02:01:45.328Z,0
2024-03-09T02:02:59.686Z,0
2024-03-09T02:04:13.000Z,0
2024-03-09T02:05:27.000Z,0
2024-03-09T02:07:56.173Z,0
2024-03-09T02:09:10.515Z,0
2024-03-09T02:10:24.878Z,0
2024-03-09T02:12:53.592Z,0
2024-03-09T02:14:07.940Z,0
2024-03-09T02:15:22.297Z,0
2024-03-09T02:16:36.655Z,0
2024-03-09T02:20:19.718Z,0
2024-03-09T02:21:33.000Z,0
2024-03-09T02:24:01.000Z,0
2024-03-09T02:25:16.186Z,0
2024-03-09T02:26:30.000Z,0
2024-03-09T02:27:44.000Z,0
2024-03-09T02:30:13.603Z,0
2024-03-09T02:31:27.962Z,0
2024-03-09T02:32:42.000Z,0
2024-03-09T02:35:11.026Z,0
2024-03-09T02:36:25.369Z,0
2024-03-09T02:37:39.000Z,0
2024-03-09T02:38:53.130Z,0
2024-03-09T02:41:21.832Z,0
2024-03-09T02:42:36.189Z,0
2024-03-09T02:43:50.552Z,0
2024-03-09T02:46:19.263Z,0
2024-03-09T02:47:33.608Z,0
2024-03-09T02:48:47.971Z,0
2024-03-09T02:50:02.325Z,0
2024-03-09T02:51:16.678Z,0
2024-03-09T02:52:31.029Z,0
2024-03-09T02:53:45.395Z,0
2024-03-09T02:54:58.000Z,0
2024-03-09T02:56:13.000Z,0
2024-03-09T02:57:27.499Z,0
2024-03-09T02:58:41.851Z,0
2024-03-09T02:59:56.000Z,0
2024-03-09T03:01:10.562Z,0
2024-03-09T03:02:24.000Z,0
2024-03-09T03:03:39.281Z,0
2024-03-09T03:04:53.000Z,0
2024-03-09T03:06:07.993Z,0
2024-03-09T03:08:35.000Z,0
2024-03-09T03:09:49.173Z,0
2024-03-09T03:11:03.527Z,0
2024-03-09T03:12:16.000Z,0
2024-03-09T03:14:45.655Z,0
2024-03-09T03:15:59.053Z,0
2024-03-09T03:17:13.406Z,0
2024-03-09T03:19:42.079Z,0
2024-03-09T03:20:56.485Z,0
2024-03-09T03:22:10.837Z,0
2024-03-09T03:23:25.184Z,0
2024-03-09T03:25:53.891Z,0
2024-03-09T03:27:08.000Z,0
2024-03-09T03:28:21.000Z,0
2024-03-09T03:30:49.000Z,0
2024-03-09T03:32:03.794Z,0
2024-03-09T03:33:18.000Z,0
2024-03-09T03:34:32.000Z,0
2024-03-09T03:35:46.000Z,0
2024-03-09T03:37:01.209Z,0
2024-03-09T03:38:15.518Z,0
2024-03-09T03:39:29.000Z,0
2024-03-09T03:41:58.636Z,0
2024-03-09T03:43:12.986Z,0
2024-03-09T03:44:27.337Z,0
2024-03-09T03:45:40.737Z,0
2024-03-09T03:48:09.443Z,0
2024-03-09T03:49:23.798Z,0
2024-03-09T03:50:38.169Z,0
2024-03-09T03:53:06.871Z,0
2024-03-09T03:54:21.223Z,0
2024-03-09T03:55:35.572Z,0
2024-03-09T03:56:49.930Z,0
2024-03-09T03:59:18.641Z,0
2024-03-09T04:00:32.991Z,0
2024-03-09T04:01:47.343Z,0
2024-03-09T04:04:15.000Z,0
2024-03-09T04:05:29.000Z,0
2024-03-09T04:06:43.828Z,0
2024-03-09T04:10:26.891Z,0
2024-03-09T04:11:41.236Z,0
2024-03-09T04:12:55.595Z,0
2024-03-09T04:14:09.000Z,0
2024-03-09T04:15:24.000Z,0
2024-03-09T04:16:38.656Z,0
2024-03-09T04:17:53.003Z,0
2024-03-09T04:19:06.411Z,0
2024-03-09T04:21:35.119Z,0
2024-03-09T04:22:49.000Z,0
2024-03-09T04:24:03.840Z,0
2024-03-09T04:26:32.551Z,0
2024-03-09T04:27:46.907Z,0
2024-03-09T04:29:01.264Z,0
2024-03-09T04:30:15.619Z,0
2024-03-09T04:32:44.318Z,0
2024-03-09T04:33:58.628Z,0
2024-03-09T04:35:13.030Z,0
2024-03-09T04:38:55.145Z,0
2024-03-09T04:40:09.489Z,0
2024-03-09T04:41:23.000Z,0
2024-03-09T04:43:52.000Z,0
2024-03-09T04:45:06.909Z,0
2024-03-09T04:46:21.264Z,0
2024-03-09T04:48:49.990Z,0
2024-03-09T04:50:04.327Z,0
2024-03-09T04:51:18.698Z,0
2024-03-09T04:52:32.090Z,0
2024-03-09T04:55:00.748Z,1
2024-03-09T04:56:15.105Z,0
2024-03-09T04:57:29.451Z,0
2024-03-09T04:59:58.076Z,1
2024-03-09T05:01:12.425Z,0
2024-03-09T05:02:26.778Z,0
2024-03-09T05:03:41.140Z,0
2024-03-09T05:06:09.859Z,0
2024-03-09T05:07:24.128Z,1
2024-03-09T05:08:38.462Z,1
2024-03-09T05:09:51.000Z,2
2024-03-09T05:11:06.000Z,1
2024-03-09T05:12:20.386Z,2
2024-03-09T05:13:34.000Z,3
2024-03-09T05:14:49.012Z,4
2024-03-09T05:16:03.000Z,5
2024-03-09T05:17:17.620Z,6
2024-03-09T05:18:31.924Z,8
2024-03-09T05:19:46.000Z,10
2024-03-09T05:21:00.000Z,11
2024-03-09T05:22:14.811Z,13
2024-03-09T05:23:29.000Z,15
2024-03-09T05:24:43.418Z,18
2024-03-09T05:25:57.000Z,24
2024-03-09T05:27:12.023Z,29
2024-03-09T05:28:25.351Z,36
2024-03-09T05:29:38.000Z,46
2024-03-09T05:30:53.046Z,53
2024-03-09T05:33:21.646Z,80
2024-03-09T05:34:35.000Z,94
2024-03-09T05:35:50.000Z,109
2024-03-09T05:37:04.542Z,126
2024-03-09T05:38:18.000Z,151
2024-03-09T05:39:33.147Z,172
2024-03-09T05:40:47.462Z,188
2024-03-09T05:42:01.758Z,210
2024-03-09T05:44:30.349Z,261
2024-03-09T05:45:43.715Z,291
2024-03-09T05:46:57.072Z,303
2024-03-09T05:48:11.000Z,325
2024-03-09T05:49:25.000Z,350
2024-03-09T05:50:39.983Z,378
2024-03-09T05:51:54.273Z,422
2024-03-09T05:53:08.581Z,452
2024-03-09T05:55:37.190Z,452
2024-03-09T05:56:51.470Z,505
2024-03-09T05:58:05.774Z,571
2024-03-09T05:59:20.087Z,627
2024-03-09T06:00:34.378Z,637
2024-03-09T06:01:48.688Z,718
2024-03-09T06:03:02.024Z,753
2024-03-09T06:04:16.000Z,600
2024-03-09T06:05:30.000Z,667
2024-03-09T06:06:44.000Z,693
2024-03-09T06:07:59.000Z,753
2024-03-09T06:09:13.000Z,782
2024-03-09T06:10:27.000Z,766
2024-03-09T06:11:41.000Z,1002
2024-03-09T06:12:54.000Z,952
2024-03-09T06:14:08.000Z,748
2024-03-09T06:15:23.000Z,606
2024-03-09T06:16:37.000Z,567
2024-03-09T06:17:51.761Z,579
2024-03-09T06:19:06.078Z,627
2024-03-09T06:20:20.374Z,496
2024-03-09T06:21:34.663Z,534
2024-03-09T06:22:48.975Z,376
2024-03-09T06:24:03.275Z,870
2024-03-09T06:25:16.609Z,1086
2024-03-09T06:26:30.000Z,853
2024-03-09T06:27:44.000Z,650
2024-03-09T06:28:58.000Z,859
2024-03-09T06:30:12.000Z,1306
2024-03-09T06:31:27.000Z,1177
2024-03-09T06:32:41.000Z,1245
2024-03-09T06:33:55.000Z,1130
2024-03-09T06:35:10.090Z,1060
2024-03-09T06:36:24.000Z,824
2024-03-09T06:37:38.000Z,905
2024-03-09T06:38:53.000Z,740
2024-03-09T06:40:07.310Z,948
2024-03-09T06:41:21.000Z,1303
2024-03-09T06:42:34.000Z,921
2024-03-09T06:43:49.000Z,1392
2024-03-09T06:45:03.000Z,1676
2024-03-09T06:46:17.000Z,2066
2024-03-09T06:47:32.000Z,1908
2024-03-09T06:50:00.758Z,2413
2024-03-09T06:51:15.069Z,2211
2024-03-09T06:52:29.365Z,1768
2024-03-09T06:53:43.663Z,1658
2024-03-09T06:54:57.963Z,1649
2024-03-09T06:56:12.271Z,1613
2024-03-09T06:57:26.564Z,1541
2024-03-09T06:58:39.911Z,1777
2024-03-09T06:59:54.205Z,1846
2024-03-09T07:02:22.810Z,1517
2024-03-09T07:03:37.118Z,1805
2024-03-09T07:04:51.424Z,1773
2024-03-09T07:06:05.000Z,1869
2024-03-09T07:07:20.000Z,1556
2024-03-09T07:08:34.323Z,1741
2024-03-09T07:09:48.619Z,1835
2024-03-09T07:11:02.928Z,1381
2024-03-09T07:13:31.518Z,919
2024-03-09T07:14:44.884Z,1375
2024-03-09T07:15:58.248Z,1880
2024-03-09T07:17:12.535Z,2147
2024-03-09T07:18:26.843Z,2178
2024-03-09T07:19:41.136Z,2222
2024-03-09T07:20:55.440Z,1842
2024-03-09T07:22:09.747Z,1710
2024-03-09T07:24:38.342Z,1504
2024-03-09T07:25:52.639Z,2130
2024-03-09T07:27:06.955Z,2768
2024-03-09T07:28:21.000Z,2284
2024-03-09T07:29:35.000Z,2056
2024-03-09T07:30:49.861Z,1874
2024-03-09T07:32:03.199Z,1667
2024-03-09T07:33:17.494Z,1602
2024-03-09T07:34:31.000Z,1461
2024-03-09T07:35:46.110Z,1395
2024-03-09T07:37:00.411Z,1451
2024-03-09T07:38:14.698Z,1396
2024-03-09T07:39:29.000Z,1798
2024-03-09T07:40:42.000Z,1180
2024-03-09T07:41:56.000Z,4105
2024-03-09T07:43:10.000Z,5178
2024-03-09T07:44:24.000Z,2227
2024-03-09T07:46:52.000Z,4838
2024-03-09T07:48:07.000Z,17214
2024-03-09T07:49:21.520Z,21186
2024-03-09T07:50:35.835Z,6227
2024-03-09T07:53:04.000Z,3919
2024-03-09T07:54:18.000Z,24596
2024-03-09T07:55:32.000Z,7194
2024-03-09T07:56:45.000Z,12329
2024-03-09T07:57:59.000Z,15679
2024-03-09T07:59:14.000Z,20321
2024-03-09T08:00:28.000Z,26487
2024-03-09T08:01:42.000Z,23461
2024-03-09T08:02:56.000Z,32227
2024-03-09T08:04:11.000Z,23536
2024-03-09T08:05:25.000Z,19891
2024-03-09T08:06:39.000Z,19506
2024-03-09T08:07:53.000Z,27583
2024-03-09T08:09:07.000Z,14255
2024-03-09T08:10:20.000Z,15940
2024-03-09T08:11:35.000Z,13578
2024-03-09T08:12:49.000Z,71786
2024-03-09T08:14:03.000Z,22048
2024-03-09T08:15:18.000Z,23016
2024-03-09T08:16:32.000Z,18962
2024-03-09T08:17:46.000Z,18210
2024-03-09T08:19:00.000Z,19476
2024-03-09T08:20:15.000Z,21898
2024-03-09T08:21:29.000Z,22735
2024-03-09T08:22:43.000Z,24144
2024-03-09T08:23:58.000Z,23881
2024-03-09T08:25:12.000Z,22312
2024-03-09T08:26:25.000Z,23541
2024-03-09T08:27:40.124Z,22759
2024-03-09T08:28:54.000Z,18491
2024-03-09T08:30:08.000Z,23328
2024-03-09T08:31:23.000Z,21694
2024-03-09T08:32:37.000Z,19651
2024-03-09T08:33:51.000Z,15655
2024-03-09T08:35:05.000Z,22585
2024-03-09T08:36:20.000Z,22164
2024-03-09T08:37:34.000Z,16567
2024-03-09T08:38:48.835Z,27243
2024-03-09T08:40:03.000Z,20014
2024-03-09T08:41:17.000Z,18222
2024-03-09T08:42:30.000Z,14743
2024-03-09T08:43:45.000Z,15515
2024-03-09T08:44:59.000Z,15366
2024-03-09T08:46:12.750Z,11462
2024-03-09T08:47:26.000Z,9805
2024-03-09T08:48:40.000Z,10193
2024-03-09T08:49:54.692Z,10974
2024-03-09T08:51:09.000Z,8118
2024-03-09T08:52:23.000Z,8450
2024-03-09T08:53:37.000Z,7845
2024-03-09T08:54:51.000Z,7462
2024-03-09T08:56:06.000Z,7711
2024-03-09T08:57:20.507Z,7265
2024-03-09T08:58:34.000Z,7184
2024-03-09T08:59:49.000Z,7458
2024-03-09T09:01:03.408Z,7286
2024-03-09T09:02:17.000Z,6916
2024-03-09T09:03:31.000Z,6859
2024-03-09T09:04:45.000Z,6799
2024-03-09T09:05:59.000Z,6542
2024-03-09T09:07:13.000Z,6402
2024-03-09T09:08:28.000Z,6369
2024-03-09T09:09:42.000Z,6274
2024-03-09T09:10:56.000Z,6239
2024-03-09T09:13:25.000Z,6220
2024-03-09T09:14:39.000Z,6176
2024-03-09T09:15:54.065Z,6148
2024-03-09T09:17:08.358Z,6171
2024-03-09T09:18:22.661Z,5819
2024-03-09T09:19:36.000Z,5975
2024-03-09T09:20:50.000Z,5870
2024-03-09T09:22:04.000Z,6402
2024-03-09T09:23:18.000Z,6039
2024-03-09T09:24:33.000Z,6166
2024-03-09T09:25:47.520Z,5668
2024-03-09T09:27:01.000Z,6147
2024-03-09T09:28:16.000Z,5572
2024-03-09T09:29:30.000Z,5246
2024-03-09T09:30:44.000Z,6399
2024-03-09T09:31:59.000Z,5397
2024-03-09T09:33:13.000Z,5389
2024-03-09T09:34:27.000Z,5357
2024-03-09T09:35:40.953Z,5223
2024-03-09T09:36:55.000Z,5590
2024-03-09T09:38:09.571Z,4555
2024-03-09T09:40:38.000Z,4894
2024-03-09T09:41:52.000Z,5746
2024-03-09T09:43:06.000Z,4155
2024-03-09T09:44:21.000Z,5329
2024-03-09T09:45:35.000Z,5627
2024-03-09T09:46:49.000Z,5021
2024-03-09T09:48:03.000Z,4486
2024-03-09T09:49:18.000Z,3521
2024-03-09T09:50:32.000Z,4510
2024-03-09T09:51:46.000Z,4959
2024-03-09T09:53:01.000Z,6587
2024-03-09T09:54:14.000Z,6026
2024-03-09T09:55:28.000Z,5469
2024-03-09T09:56:43.000Z,4942
2024-03-09T09:57:57.000Z,5824
2024-03-09T09:59:11.718Z,5595
2024-03-09T10:00:26.000Z,5349
2024-03-09T10:01:40.000Z,5911
2024-03-09T10:02:54.000Z,5107
2024-03-09T10:04:08.000Z,5698
2024-03-09T10:05:23.000Z,5467
2024-03-09T10:06:37.524Z,6249
2024-03-09T10:07:51.830Z,5012
2024-03-09T10:09:06.000Z,5645
2024-03-09T10:10:20.000Z,6099
2024-03-09T10:11:33.000Z,4579
2024-03-09T10:12:48.000Z,4091
2024-03-09T10:14:02.000Z,5025
2024-03-09T10:15:16.000Z,5072
2024-03-09T10:16:31.000Z,4427
2024-03-09T10:17:45.000Z,4799
2024-03-09T10:18:59.000Z,3940
2024-03-09T10:20:13.000Z,3658
2024-03-09T10:21:27.000Z,4153
2024-03-09T10:22:41.000Z,4119
2024-03-09T10:23:55.000Z,5030
2024-03-09T10:25:10.000Z,4576
2024-03-09T10:26:24.000Z,4228
2024-03-09T10:27:38.000Z,4485
2024-03-09T10:28:53.000Z,5382
2024-03-09T10:30:07.341Z,4593
2024-03-09T10:31:21.000Z,4321
2024-03-09T10:32:35.000Z,3914
2024-03-09T10:35:04.000Z,4042
2024-03-09T10:36:18.834Z,4027
2024-03-09T10:37:32.000Z,4108
2024-03-09T10:38:46.000Z,4185
2024-03-09T10:40:00.000Z,4591
2024-03-09T10:41:15.000Z,4403
2024-03-09T10:42:29.000Z,4548
2024-03-09T10:43:43.000Z,3739
2024-03-09T10:44:58.000Z,4661
2024-03-09T10:46:12.000Z,5272
2024-03-09T10:47:26.000Z,5200
2024-03-09T10:48:40.000Z,5319
2024-03-09T10:49:55.000Z,5329
2024-03-09T10:51:09.000Z,5070
2024-03-09T10:52:23.801Z,4552
2024-03-09T10:54:52.000Z,3827
2024-03-09T10:56:05.000Z,4473
2024-03-09T10:57:20.000Z,4558
2024-03-09T10:58:34.000Z,4036
2024-03-09T10:59:48.000Z,3428
2024-03-09T11:01:02.000Z,3571
2024-03-09T11:02:17.252Z,4006
2024-03-09T11:03:31.000Z,4424
2024-03-09T11:04:45.000Z,4655
2024-03-09T11:06:00.000Z,4612
2024-03-09T11:07:14.000Z,4447
2024-03-09T11:08:28.000Z,4354
2024-03-09T11:09:43.000Z,3981
2024-03-09T11:12:11.000Z,3605
2024-03-09T11:13:25.954Z,3498
2024-03-09T11:14:39.000Z,3425
2024-03-09T11:15:53.000Z,3395
2024-03-09T11:17:07.902Z,3326
2024-03-09T11:18:22.000Z,3296
2024-03-09T11:19:36.000Z,3295
2024-03-09T11:20:50.000Z,3303
2024-03-09T11:22:05.000Z,3287
2024-03-09T11:23:19.000Z,3275
2024-03-09T11:24:33.000Z,3316
2024-03-09T11:25:48.000Z,3363
2024-03-09T11:27:02.000Z,3370
2024-03-09T11:28:16.000Z,3355
2024-03-09T11:29:30.909Z,3346
2024-03-09T11:30:45.000Z,3321
2024-03-09T11:31:59.000Z,3296
2024-03-09T11:33:13.000Z,3309
2024-03-09T11:34:28.000Z,3275
2024-03-09T11:35:42.000Z,3248
2024-03-09T11:36:56.000Z,3345
2024-03-09T11:38:10.063Z,3294
2024-03-09T11:39:24.000Z,3244
2024-03-09T11:40:38.648Z,3218
2024-03-09T11:41:52.000Z,3214
2024-03-09T11:44:21.552Z,3230
2024-03-09T11:45:35.000Z,3244
2024-03-09T11:46:50.000Z,3255
2024-03-09T11:48:04.463Z,3444
2024-03-09T11:49:18.000Z,3469
2024-03-09T11:50:33.000Z,3501
2024-03-09T11:51:47.000Z,3536
2024-03-09T11:53:01.667Z,3500
2024-03-09T11:54:15.000Z,3382
2024-03-09T11:55:29.000Z,3315
2024-03-09T11:56:43.000Z,3327
2024-03-09T11:57:57.000Z,3263
2024-03-09T11:59:12.000Z,3341
2024-03-09T12:00:26.000Z,3728
2024-03-09T12:01:40.000Z,4093
2024-03-09T12:02:55.116Z,4435
2024-03-09T12:04:09.000Z,4390
2024-03-09T12:06:38.008Z,4071
2024-03-09T12:07:52.000Z,3859
2024-03-09T12:09:06.000Z,3931
2024-03-09T12:10:20.914Z,3658
2024-03-09T12:11:35.000Z,3575
2024-03-09T12:12:48.000Z,3532
2024-03-09T12:14:02.864Z,3502
2024-03-09T12:16:31.000Z,3222
2024-03-09T12:17:45.000Z,3073
2024-03-09T12:19:00.000Z,3179
2024-03-09T12:20:14.000Z,3046
2024-03-09T12:21:28.000Z,2885
2024-03-09T12:22:42.977Z,2760
2024-03-09T12:23:57.000Z,2723
2024-03-09T12:25:11.563Z,2714
2024-03-09T12:26:25.000Z,2710
2024-03-09T12:27:40.000Z,2719
2024-03-09T12:28:54.461Z,2730
2024-03-09T12:30:07.000Z,2727
2024-03-09T12:31:22.000Z,2722
2024-03-09T12:32:36.000Z,2734
2024-03-09T12:33:50.000Z,2755
2024-03-09T12:35:05.000Z,2761
2024-03-09T12:36:19.000Z,2719
2024-03-09T12:37:33.000Z,2834
2024-03-09T12:38:47.000Z,2791
2024-03-09T12:40:02.217Z,2902
2024-03-09T12:41:16.533Z,3056
2024-03-09T12:42:30.000Z,3393
2024-03-09T12:43:45.000Z,3510
2024-03-09T12:44:59.000Z,3173
2024-03-09T12:46:13.000Z,2959
2024-03-09T12:47:28.000Z,2895
2024-03-09T12:48:42.000Z,2877
2024-03-09T12:49:56.000Z,2899
2024-03-09T12:51:11.000Z,2981
2024-03-09T12:52:25.000Z,2836
2024-03-09T12:53:39.000Z,2762
2024-03-09T12:54:53.000Z,2775
2024-03-09T12:56:08.000Z,2810
2024-03-09T12:57:22.545Z,2852
2024-03-09T12:58:36.000Z,2871
2024-03-09T12:59:51.000Z,2915
2024-03-09T13:01:05.461Z,2975
2024-03-09T13:02:18.000Z,3101
2024-03-09T13:03:33.096Z,3130
2024-03-09T13:04:47.398Z,3111
2024-03-09T13:06:01.708Z,3058
2024-03-09T13:07:16.013Z,3033
2024-03-09T13:08:30.000Z,3061
2024-03-09T13:09:44.587Z,3194
2024-03-09T13:10:58.900Z,2898
2024-03-09T13:12:13.000Z,3062
2024-03-09T13:13:27.000Z,3229
2024-03-09T13:14:41.000Z,3339
2024-03-09T13:15:56.000Z,3227
2024-03-09T13:17:10.417Z,3382
2024-03-09T13:18:24.000Z,3154
2024-03-09T13:19:38.000Z,2885
2024-03-09T13:20:52.000Z,2834
2024-03-09T13:22:06.000Z,2798
2024-03-09T13:23:20.000Z,2867
2024-03-09T13:24:35.000Z,3007
2024-03-09T13:25:49.000Z,3184
2024-03-09T13:27:03.000Z,3430
2024-03-09T13:28:18.000Z,3334
2024-03-09T13:29:32.453Z,3308
2024-03-09T13:30:46.000Z,3216
2024-03-09T13:32:01.000Z,3097
2024-03-09T13:33:15.371Z,3071
2024-03-09T13:34:29.000Z,3167
2024-03-09T13:35:43.000Z,3214
2024-03-09T13:36:58.000Z,3245
2024-03-09T13:38:12.000Z,3266
2024-03-09T13:39:26.000Z,3292
2024-03-09T13:40:40.000Z,3488
2024-03-09T13:41:54.000Z,3444
2024-03-09T13:43:08.000Z,3306
2024-03-09T13:44:23.000Z,3307
2024-03-09T13:45:37.000Z,3301
2024-03-09T13:46:51.000Z,3265
2024-03-09T13:48:06.000Z,3182
2024-03-09T13:49:20.000Z,3134
2024-03-09T13:50:34.000Z,3088
2024-03-09T13:51:48.926Z,2966
2024-03-09T13:53:03.000Z,2856
2024-03-09T13:54:17.510Z,2769
2024-03-09T13:55:31.825Z,2696
2024-03-09T13:56:45.000Z,2630
2024-03-09T13:57:59.000Z,2567
2024-03-09T13:59:13.000Z,2513
2024-03-09T14:00:28.000Z,2470
2024-03-09T14:01:42.379Z,2424
2024-03-09T14:02:56.000Z,2382
2024-03-09T14:04:10.000Z,2360
2024-03-09T14:05:25.000Z,2354
2024-03-09T14:06:39.000Z,2335
2024-03-09T14:07:53.000Z,2289
2024-03-09T14:09:08.000Z,2238
2024-03-09T14:10:22.000Z,2204
2024-03-09T14:11:36.000Z,2177
2024-03-09T14:12:51.000Z,2168
2024-03-09T14:14:04.000Z,2174
2024-03-09T14:15:18.000Z,2193
2024-03-09T14:16:33.000Z,2178
2024-03-09T14:17:47.315Z,2194
2024-03-09T14:19:01.000Z,2265
2024-03-09T14:20:15.000Z,2319
2024-03-09T14:21:30.000Z,2307
2024-03-09T14:22:44.000Z,2220
2024-03-09T14:23:58.833Z,2122
2024-03-09T14:25:13.000Z,2054
2024-03-09T14:26:27.000Z,2008
2024-03-09T14:27:41.722Z,1971
2024-03-09T14:28:56.000Z,1954
2024-03-09T14:30:10.000Z,1956
2024-03-09T14:31:23.000Z,1955
2024-03-09T14:32:38.000Z,1967
2024-03-09T14:33:52.000Z,1971
2024-03-09T14:35:06.582Z,1964
2024-03-09T14:36:20.888Z,1955
2024-03-09T14:37:35.000Z,1952
2024-03-09T14:38:49.000Z,1957
2024-03-09T14:40:03.000Z,1960
2024-03-09T14:42:32.000Z,1955
2024-03-09T14:43:46.000Z,1958
2024-03-09T14:45:00.988Z,1957
2024-03-09T14:46:15.000Z,1954
2024-03-09T14:47:28.000Z,1954
2024-03-09T14:48:42.000Z,1954
2024-03-09T14:49:57.000Z,1943
2024-03-09T14:51:11.553Z,1924
2024-03-09T14:52:25.842Z,1909
2024-03-09T14:53:40.000Z,1893
2024-03-09T14:56:08.739Z,1863
2024-03-09T14:57:23.044Z,1847
2024-03-09T14:58:37.346Z,1841
2024-03-09T14:59:51.000Z,1837
2024-03-09T15:01:05.942Z,1830
2024-03-09T15:02:20.252Z,1817
2024-03-09T15:03:34.000Z,1816
2024-03-09T15:04:48.000Z,1812
2024-03-09T15:06:02.000Z,1813
2024-03-09T15:07:16.000Z,1811
2024-03-09T15:08:30.000Z,1811
2024-03-09T15:09:45.000Z,1808
2024-03-09T15:10:59.000Z,1806
2024-03-09T15:13:28.001Z,1786
2024-03-09T15:14:42.000Z,1757
2024-03-09T15:15:56.000Z,1729
2024-03-09T15:18:25.197Z,1697
2024-03-09T15:19:39.000Z,1684
2024-03-09T15:20:53.805Z,1675
2024-03-09T15:22:08.000Z,1667
2024-03-09T15:23:22.000Z,1654
2024-03-09T15:24:35.000Z,1642
2024-03-09T15:25:50.000Z,1632
2024-03-09T15:27:04.000Z,1618
2024-03-09T15:28:18.000Z,1608
2024-03-09T15:29:32.966Z,1597
2024-03-09T15:30:47.251Z,1585
2024-03-09T15:32:01.567Z,1579
2024-03-09T15:33:15.859Z,1566
2024-03-09T15:34:30.164Z,1556
2024-03-09T15:35:44.451Z,1548
2024-03-09T15:36:58.000Z,1535
2024-03-09T15:38:13.000Z,1523
2024-03-09T15:39:27.000Z,1505
2024-03-09T15:40:41.000Z,1492
2024-03-09T15:41:55.000Z,1475
2024-03-09T15:43:09.000Z,1463
2024-03-09T15:44:23.000Z,1446
2024-03-09T15:45:37.000Z,1434
2024-03-09T15:46:52.000Z,1421
2024-03-09T15:48:06.000Z,1411
2024-03-09T15:49:20.000Z,1399
2024-03-09T15:50:35.115Z,1390
2024-03-09T15:51:49.423Z,1377
2024-03-09T15:53:03.718Z,1364
2024-03-09T15:54:18.000Z,1352
2024-03-09T15:55:32.000Z,1332
2024-03-09T15:56:46.619Z,1317
2024-03-09T15:58:00.000Z,1298
2024-03-09T15:59:15.000Z,1281
2024-03-09T16:00:28.000Z,1266
2024-03-09T16:01:42.000Z,1246
2024-03-09T16:02:57.000Z,1235
2024-03-09T16:04:11.459Z,1217
2024-03-09T16:05:25.000Z,1199
2024-03-09T16:06:40.073Z,1182
2024-03-09T16:07:54.365Z,1166
2024-03-09T16:09:08.000Z,1146
2024-03-09T16:10:22.000Z,1122
2024-03-09T16:11:37.000Z,1103
2024-03-09T16:12:51.000Z,1082
2024-03-09T16:14:05.000Z,1063
2024-03-09T16:15:20.170Z,1044
2024-03-09T16:16:34.000Z,1025
2024-03-09T16:19:02.088Z,982
2024-03-09T16:20:16.422Z,962
2024-03-09T16:21:30.731Z,940
2024-03-09T16:22:45.000Z,918
2024-03-09T16:23:59.000Z,892
2024-03-09T16:25:13.000Z,872
2024-03-09T16:26:27.000Z,846
2024-03-09T16:27:42.000Z,825
2024-03-09T16:28:56.000Z,801
2024-03-09T16:30:10.000Z,779
2024-03-09T16:31:25.000Z,756
2024-03-09T16:32:39.000Z,732
2024-03-09T16:33:52.000Z,711
2024-03-09T16:35:07.000Z,686
2024-03-09T16:36:21.370Z,663
2024-03-09T16:37:35.681Z,638
2024-03-09T16:38:49.000Z,613
2024-03-09T16:40:04.000Z,587
2024-03-09T16:41:18.000Z,561
2024-03-09T16:42:32.000Z,528
2024-03-09T16:43:47.000Z,496
2024-03-09T16:45:01.000Z,463
2024-03-09T16:46:15.000Z,437
2024-03-09T16:47:30.070Z,415
2024-03-09T16:48:44.374Z,393
2024-03-09T16:49:57.000Z,372
2024-03-09T16:51:12.000Z,350
2024-03-09T16:52:26.334Z,323
2024-03-09T16:53:40.625Z,298
2024-03-09T16:54:54.000Z,270
2024-03-09T16:56:09.000Z,246
2024-03-09T16:57:23.000Z,222
2024-03-09T16:58:37.000Z,200
2024-03-09T16:59:52.000Z,180
2024-03-09T17:01:06.000Z,160
2024-03-09T17:02:20.000Z,143
2024-03-09T17:03:35.000Z,127
2024-03-09T17:04:49.000Z,113
2024-03-09T17:06:02.000Z,97
2024-03-09T17:07:16.000Z,84
2024-03-09T17:08:31.000Z,73
2024-03-09T17:09:45.000Z,64
2024-03-09T17:10:59.000Z,52
2024-03-09T17:12:14.000Z,46
2024-03-09T17:13:28.000Z,38
2024-03-09T17:14:42.000Z,31
2024-03-09T17:15:57.000Z,26
2024-03-09T17:17:11.378Z,22
2024-03-09T17:18:25.679Z,19
2024-03-09T17:19:39.000Z,14
2024-03-09T17:20:54.289Z,12
2024-03-09T17:22:07.636Z,9
2024-03-09T17:23:21.000Z,7
2024-03-09T17:25:50.000Z,5
2024-03-09T17:27:04.000Z,3
2024-03-09T17:28:19.000Z,2
2024-03-09T17:29:33.000Z,2
2024-03-09T17:30:47.000Z,2
2024-03-09T17:32:02.000Z,1
2024-03-09T17:33:16.000Z,1
2024-03-09T17:34:30.000Z,0
2024-03-09T17:35:45.000Z,0
2024-03-09T17:36:59.000Z,0
2024-03-09T17:38:12.000Z,0
2024-03-09T17:39:27.000Z,0
2024-03-09T17:40:41.000Z,0
2024-03-09T17:41:55.000Z,0
2024-03-09T17:43:10.000Z,0
2024-03-09T17:44:24.547Z,0
2024-03-09T17:45:38.000Z,0
2024-03-09T17:46:53.000Z,0
2024-03-09T17:48:07.617Z,0
2024-03-09T17:49:22.000Z,0
2024-03-09T17:50:36.000Z,0
2024-03-09T17:51:50.000Z,0
2024-03-09T17:53:05.000Z,0
2024-03-09T17:54:18.000Z,0
2024-03-09T17:55:32.000Z,0
2024-03-09T17:56:47.000Z,0
2024-03-09T17:58:01.504Z,0
2024-03-09T18:00:30.198Z,0
2024-03-09T18:01:44.000Z,0
2024-03-09T18:02:58.000Z,0
2024-03-09T18:04:13.000Z,0
2024-03-09T18:05:27.618Z,0
2024-03-09T18:06:42.000Z,0
2024-03-09T18:07:56.000Z,0
2024-03-09T18:09:10.000Z,0
2024-03-09T18:10:24.000Z,0
2024-03-09T18:11:38.450Z,0
2024-03-09T18:12:52.000Z,0
2024-03-09T18:14:07.154Z,0
2024-03-09T18:15:21.000Z,0
2024-03-09T18:16:35.876Z,0
2024-03-09T18:17:50.000Z,0
2024-03-09T18:19:04.000Z,0
2024-03-09T18:20:18.000Z,0
2024-03-09T18:21:33.000Z,0
2024-03-09T18:22:47.000Z,0
2024-03-09T18:24:02.000Z,0
2024-03-09T18:25:16.365Z,0
2024-03-09T18:28:58.000Z,0
2024-03-09T18:30:12.830Z,0